createdAt,value
2019-02-09T00:01:02.023Z,2.87
2019-02-09T00:03:29.992Z,2.42
2019-02-09T00:05:58.252Z,2.37
2019-02-09T00:08:26.819Z,2.37
2019-02-09T00:10:54.972Z,2.17
2019-02-09T00:13:22.872Z,3.47
2019-02-09T00:15:50.871Z,3.12
2019-02-09T00:18:18.754Z,2.70
2019-02-09T00:20:46.660Z,3.22
2019-02-09T00:23:14.637Z,2.37
2019-02-09T00:25:42.797Z,2.92
2019-02-09T00:28:11.826Z,2.85
2019-02-09T00:30:39.723Z,1.95
2019-02-09T00:33:07.588Z,2.30
2019-02-09T00:35:35.603Z,1.65
2019-02-09T00:38:03.718Z,2.37
2019-02-09T00:40:31.744Z,2.47
2019-02-09T00:42:59.735Z,1.75
2019-02-09T00:45:27.865Z,1.47
2019-02-09T00:47:55.911Z,2.10
2019-02-09T00:50:23.943Z,1.40
2019-02-09T00:52:51.882Z,1.70
2019-02-09T00:55:20.157Z,1.60
2019-02-09T00:57:48.244Z,1.12
2019-02-09T01:00:21.664Z,1.45
2019-02-09T01:02:49.847Z,1.67
2019-02-09T01:05:21.625Z,1.67
2019-02-09T01:07:49.441Z,1.12
2019-02-09T01:10:17.781Z,1.45
2019-02-09T01:12:45.649Z,1.00
2019-02-09T01:15:14.945Z,0.95
2019-02-09T01:17:43.451Z,1.40
2019-02-09T01:20:15.877Z,1.20
2019-02-09T01:22:43.811Z,1.50
2019-02-09T01:25:11.783Z,1.10
2019-02-09T01:27:39.679Z,1.50
2019-02-09T01:30:12.021Z,1.47
2019-02-09T01:32:39.955Z,1.77
2019-02-09T01:35:09.726Z,1.07
2019-02-09T01:37:37.629Z,1.62
2019-02-09T01:40:09.197Z,1.37
2019-02-09T01:42:37.150Z,1.52
2019-02-09T01:45:07.480Z,1.67
2019-02-09T01:47:35.373Z,1.62
2019-02-09T01:50:06.855Z,2.02
2019-02-09T01:52:34.822Z,1.37
2019-02-09T01:55:04.601Z,1.87
2019-02-09T01:57:32.940Z,2.20
2019-02-09T02:00:00.989Z,2.65
2019-02-09T02:02:29.036Z,2.20
2019-02-09T02:04:57.037Z,2.08
2019-02-09T02:07:25.307Z,2.10
2019-02-09T02:09:53.272Z,1.50
2019-02-09T02:12:21.970Z,2.08
2019-02-09T02:14:49.953Z,2.37
2019-02-09T02:17:18.634Z,1.65
2019-02-09T02:19:46.619Z,1.82
2019-02-09T02:22:14.676Z,2.15
2019-02-09T02:24:42.530Z,2.02
2019-02-09T02:27:10.419Z,2.40
2019-02-09T02:29:38.292Z,1.80
2019-02-09T02:32:06.236Z,1.95
2019-02-09T02:34:34.244Z,2.22
2019-02-09T02:37:02.194Z,2.30
2019-02-09T02:39:30.159Z,1.55
2019-02-09T02:41:58.061Z,2.65
2019-02-09T02:44:25.911Z,2.12
2019-02-09T02:46:53.816Z,1.10
2019-02-09T02:49:23.173Z,1.20
2019-02-09T02:51:51.102Z,1.57
2019-02-09T02:54:19.402Z,1.32
2019-02-09T02:56:47.353Z,1.77
2019-02-09T02:59:15.198Z,1.30
2019-02-09T03:01:43.577Z,1.42
2019-02-09T03:04:11.543Z,1.27
2019-02-09T03:06:39.379Z,1.50
2019-02-09T03:09:08.245Z,1.30
2019-02-09T03:11:36.530Z,1.32
2019-02-09T03:14:04.823Z,1.37
2019-02-09T03:16:32.738Z,1.40
2019-02-09T03:19:00.610Z,1.72
2019-02-09T03:21:28.964Z,2.15
2019-02-09T03:23:56.837Z,1.95
2019-02-09T03:26:24.680Z,1.57
2019-02-09T03:28:52.591Z,1.62
2019-02-09T03:31:20.516Z,2.08
2019-02-09T03:33:48.491Z,2.33
2019-02-09T03:36:16.698Z,1.50
2019-02-09T03:38:45.172Z,1.30
2019-02-09T03:41:13.024Z,2.72
2019-02-09T03:43:40.948Z,1.92
2019-02-09T03:46:08.922Z,2.58
2019-02-09T03:48:36.946Z,1.62
2019-02-09T03:51:04.861Z,2.42
2019-02-09T03:53:32.809Z,1.65
2019-02-09T03:56:01.099Z,1.85
2019-02-09T03:58:29.317Z,1.40
2019-02-09T04:00:57.211Z,1.90
2019-02-09T04:03:25.461Z,1.80
2019-02-09T04:05:53.425Z,2.58
2019-02-09T04:08:21.498Z,2.10
2019-02-09T04:10:49.483Z,2.70
2019-02-09T04:13:17.366Z,2.22
2019-02-09T04:15:45.347Z,1.45
2019-02-09T04:18:13.583Z,2.35
2019-02-09T04:20:41.511Z,1.50
2019-02-09T04:23:09.491Z,1.57
2019-02-09T04:25:37.636Z,2.40
2019-02-09T04:28:05.866Z,1.80
2019-02-09T04:30:34.181Z,1.00
2019-02-09T04:33:02.098Z,1.40
2019-02-09T04:35:29.965Z,1.20
2019-02-09T04:37:58.030Z,1.85
2019-02-09T04:40:30.402Z,1.35
2019-02-09T04:42:58.513Z,1.35
2019-02-09T04:45:26.619Z,1.10
2019-02-09T04:47:54.633Z,0.88
2019-02-09T04:50:23.574Z,1.70
2019-02-09T04:52:51.942Z,1.70
2019-02-09T04:55:22.679Z,1.02
2019-02-09T04:57:50.893Z,1.00
2019-02-09T05:00:22.244Z,1.10
2019-02-09T05:02:50.351Z,0.72
2019-02-09T05:05:18.258Z,0.80
2019-02-09T05:07:46.229Z,0.95
2019-02-09T05:10:15.528Z,0.88
2019-02-09T05:12:43.547Z,0.98
2019-02-09T05:15:13.411Z,0.95
2019-02-09T05:17:41.785Z,1.15
2019-02-09T05:20:15.565Z,1.27
2019-02-09T05:22:43.636Z,1.17
2019-02-09T05:25:12.111Z,1.20
2019-02-09T05:27:40.228Z,0.95
2019-02-09T05:30:18.254Z,0.80
2019-02-09T05:32:46.988Z,1.25
2019-02-09T05:35:15.298Z,0.85
2019-02-09T05:37:43.283Z,0.70
2019-02-09T05:40:14.223Z,0.70
2019-02-09T05:42:42.262Z,1.00
2019-02-09T05:45:14.642Z,0.90
2019-02-09T05:47:42.751Z,0.68
2019-02-09T05:50:13.348Z,1.05
2019-02-09T05:52:41.911Z,0.90
2019-02-09T05:55:10.705Z,0.80
2019-02-09T05:57:38.734Z,0.85
2019-02-09T06:00:11.396Z,0.80
2019-02-09T06:02:39.450Z,0.68
2019-02-09T06:05:08.338Z,0.80
2019-02-09T06:07:36.436Z,1.10
2019-02-09T06:10:09.084Z,1.40
2019-02-09T06:12:36.997Z,0.90
2019-02-09T06:15:05.991Z,0.88
2019-02-09T06:17:34.070Z,0.90
2019-02-09T06:20:02.095Z,1.00
2019-02-09T06:22:30.114Z,0.80
2019-02-09T06:24:58.155Z,0.70
2019-02-09T06:27:26.350Z,0.70
2019-02-09T06:29:54.288Z,0.80
2019-02-09T06:32:22.479Z,1.00
2019-02-09T06:34:50.665Z,0.90
2019-02-09T06:37:18.739Z,0.80
2019-02-09T06:39:47.296Z,1.00
2019-02-09T06:42:15.291Z,0.80
2019-02-09T06:44:43.384Z,0.88
2019-02-09T06:47:11.394Z,1.10
2019-02-09T06:49:39.861Z,0.70
2019-02-09T06:52:08.000Z,0.90
2019-02-09T06:54:39.143Z,1.00
2019-02-09T06:57:07.109Z,0.85
2019-02-09T06:59:35.193Z,1.00
2019-02-09T07:02:03.052Z,1.10
2019-02-09T07:04:31.076Z,2.33
2019-02-09T07:06:59.022Z,2.37
2019-02-09T07:09:27.067Z,1.00
2019-02-09T07:11:55.055Z,2.30
2019-02-09T07:14:23.009Z,1.20
2019-02-09T07:16:50.921Z,1.00
2019-02-09T07:19:21.000Z,0.90
2019-02-09T07:21:49.128Z,0.90
2019-02-09T07:24:17.456Z,0.70
2019-02-09T07:26:45.612Z,0.80
2019-02-09T07:29:14.081Z,0.80
2019-02-09T07:31:42.233Z,0.72
2019-02-09T07:34:11.766Z,0.82
2019-02-09T07:36:40.113Z,0.82
2019-02-09T07:39:09.323Z,0.70
2019-02-09T07:41:37.354Z,0.80
2019-02-09T07:44:05.829Z,0.90
2019-02-09T07:46:33.748Z,0.90
2019-02-09T07:49:03.591Z,0.80
2019-02-09T07:51:33.621Z,0.72
2019-02-09T07:54:01.829Z,0.80
2019-02-09T07:56:30.306Z,0.80
2019-02-09T07:58:58.408Z,1.17
2019-02-09T08:01:26.828Z,0.60
2019-02-09T08:04:13.147Z,0.60
2019-02-09T08:06:41.418Z,0.90
2019-02-09T08:09:11.804Z,0.80
2019-02-09T08:11:39.756Z,0.90
2019-02-09T08:14:07.894Z,1.00
2019-02-09T08:16:35.984Z,0.90
2019-02-09T08:19:04.466Z,1.10
2019-02-09T08:21:32.628Z,1.30
2019-02-09T08:24:00.637Z,0.95
2019-02-09T08:26:28.680Z,1.42
2019-02-09T08:28:56.703Z,1.10
2019-02-09T08:31:24.920Z,1.40
2019-02-09T08:33:52.871Z,0.80
2019-02-09T08:36:21.227Z,1.12
2019-02-09T08:38:49.401Z,1.20
2019-02-09T08:41:17.391Z,1.37
2019-02-09T08:43:45.681Z,0.90
2019-02-09T08:46:13.798Z,0.90
2019-02-09T08:48:41.963Z,0.80
2019-02-09T08:51:12.943Z,1.22
2019-02-09T08:53:44.319Z,1.17
2019-02-09T08:56:13.928Z,1.10
2019-02-09T08:58:42.163Z,0.80
2019-02-09T09:01:13.074Z,1.17
2019-02-09T09:03:41.516Z,0.82
2019-02-09T09:06:09.828Z,1.40
2019-02-09T09:08:37.992Z,0.70
2019-02-09T09:11:06.451Z,1.20
2019-02-09T09:13:34.514Z,1.25
2019-02-09T09:16:09.813Z,1.35
2019-02-09T09:18:38.513Z,1.65
2019-02-09T09:21:08.590Z,1.65
2019-02-09T09:23:36.505Z,1.47
2019-02-09T09:26:05.231Z,1.20
2019-02-09T09:28:33.441Z,0.93
2019-02-09T09:31:01.523Z,0.80
2019-02-09T09:33:29.585Z,1.20
2019-02-09T09:35:57.499Z,1.05
2019-02-09T09:38:25.549Z,0.90
2019-02-09T09:40:53.586Z,1.20
2019-02-09T09:43:22.586Z,1.30
2019-02-09T09:45:50.673Z,1.20
2019-02-09T09:48:19.382Z,1.25
2019-02-09T09:50:47.436Z,1.37
2019-02-09T09:53:15.448Z,1.27
2019-02-09T09:55:43.451Z,1.15
2019-02-09T09:58:11.370Z,0.90
2019-02-09T10:00:39.410Z,1.90
2019-02-09T10:03:07.531Z,1.22
2019-02-09T10:05:35.500Z,2.20
2019-02-09T10:08:04.339Z,1.20
2019-02-09T10:10:32.861Z,1.55
2019-02-09T10:13:01.358Z,0.95
2019-02-09T10:15:29.563Z,1.30
2019-02-09T10:17:57.507Z,1.57
2019-02-09T10:20:25.489Z,1.00
2019-02-09T10:22:54.024Z,1.12
2019-02-09T10:25:22.485Z,1.27
2019-02-09T10:27:51.864Z,0.90
2019-02-09T10:30:23.014Z,1.10
2019-02-09T10:32:51.900Z,1.87
2019-02-09T10:35:20.756Z,0.90
2019-02-09T10:37:48.954Z,0.90
2019-02-09T10:40:23.346Z,0.90
2019-02-09T10:42:53.039Z,1.32
2019-02-09T10:45:23.559Z,1.25
2019-02-09T10:47:52.454Z,0.80
2019-02-09T10:50:26.365Z,1.00
2019-02-09T10:52:54.694Z,1.17
2019-02-09T10:55:22.828Z,0.95
2019-02-09T10:57:50.962Z,1.45
2019-02-09T11:00:31.962Z,1.10
2019-02-09T11:03:00.261Z,1.00
2019-02-09T11:05:28.356Z,0.98
2019-02-09T11:07:56.730Z,1.00
2019-02-09T11:10:25.772Z,1.27
2019-02-09T11:12:53.829Z,1.55
2019-02-09T11:15:23.068Z,1.00
2019-02-09T11:17:51.688Z,1.10
2019-02-09T11:20:19.843Z,1.05
2019-02-09T11:22:47.970Z,0.98
2019-02-09T11:25:17.138Z,1.22
2019-02-09T11:27:45.122Z,0.98
2019-02-09T11:30:17.784Z,1.17
2019-02-09T11:32:45.781Z,0.90
2019-02-09T11:35:16.686Z,1.92
2019-02-09T11:37:44.807Z,1.10
2019-02-09T11:40:13.873Z,1.25
2019-02-09T11:42:41.984Z,1.22
2019-02-09T11:45:17.900Z,0.90
2019-02-09T11:47:46.242Z,1.40
2019-02-09T11:50:14.668Z,1.35
2019-02-09T11:52:42.614Z,1.00
2019-02-09T11:55:11.767Z,1.67
2019-02-09T11:57:40.201Z,1.77
2019-02-09T12:00:22.478Z,1.20
2019-02-09T12:02:50.496Z,1.22
2019-02-09T12:05:18.601Z,1.45
2019-02-09T12:07:47.197Z,1.20
2019-02-09T12:10:19.994Z,1.40
2019-02-09T12:12:48.509Z,1.35
2019-02-09T12:15:29.179Z,1.12
2019-02-09T12:17:57.804Z,1.72
2019-02-09T12:20:26.387Z,1.27
2019-02-09T12:22:55.413Z,2.33
2019-02-09T12:25:31.805Z,1.35
2019-02-09T12:28:00.013Z,1.12
2019-02-09T12:30:31.942Z,0.90
2019-02-09T12:33:00.179Z,1.40
2019-02-09T12:35:28.814Z,0.88
2019-02-09T12:37:57.186Z,1.17
2019-02-09T12:40:31.277Z,2.17
2019-02-09T12:42:59.394Z,1.25
2019-02-09T12:45:28.666Z,1.02
2019-02-09T12:47:56.677Z,1.30
2019-02-09T12:50:25.986Z,1.10
2019-02-09T12:52:54.520Z,1.25
2019-02-09T12:55:25.267Z,0.80
2019-02-09T12:57:53.503Z,0.80
2019-02-09T13:00:25.423Z,1.00
2019-02-09T13:02:54.618Z,1.40
2019-02-09T13:05:24.196Z,1.17
2019-02-09T13:07:52.466Z,0.80
2019-02-09T13:10:20.818Z,0.95
2019-02-09T13:12:50.353Z,2.10
2019-02-09T13:15:22.402Z,1.20
2019-02-09T13:17:50.841Z,0.93
2019-02-09T13:20:22.042Z,0.80
2019-02-09T13:22:50.703Z,0.80
2019-02-09T13:25:19.499Z,1.07
2019-02-09T13:27:49.609Z,0.90
2019-02-09T13:30:27.018Z,0.90
2019-02-09T13:32:55.316Z,1.07
2019-02-09T13:35:23.321Z,0.90
2019-02-09T13:37:51.342Z,0.90
2019-02-09T13:40:19.962Z,0.90
2019-02-09T13:42:48.383Z,1.42
2019-02-09T13:45:26.097Z,1.80
2019-02-09T13:47:54.159Z,0.98
2019-02-09T13:50:22.720Z,1.25
2019-02-09T13:52:51.426Z,1.12
2019-02-09T13:55:19.498Z,0.80
2019-02-09T13:57:47.437Z,1.00
2019-02-09T14:00:19.536Z,1.00
2019-02-09T14:02:48.263Z,0.98
2019-02-09T14:05:16.316Z,2.47
2019-02-09T14:07:44.283Z,0.90
2019-02-09T14:10:16.026Z,1.10
2019-02-09T14:12:44.258Z,1.70
2019-02-09T14:15:25.530Z,1.25
2019-02-09T14:17:55.089Z,1.45
2019-02-09T14:20:25.617Z,1.10
2019-02-09T14:22:54.107Z,1.00
2019-02-09T14:25:22.188Z,0.60
2019-02-09T14:27:52.821Z,0.60
2019-02-09T14:30:23.726Z,0.65
2019-02-09T14:32:52.333Z,0.80
2019-02-09T14:35:20.977Z,0.70
2019-02-09T14:37:49.150Z,0.50
2019-02-09T14:40:20.852Z,0.80
2019-02-09T14:42:48.972Z,0.75
2019-02-09T14:45:20.841Z,0.75
2019-02-09T14:47:49.221Z,0.90
2019-02-09T14:50:17.557Z,1.35
2019-02-09T14:52:45.713Z,0.70
2019-02-09T14:55:21.740Z,1.27
2019-02-09T14:57:50.169Z,0.90
2019-02-09T15:00:21.834Z,0.90
2019-02-09T15:02:54.009Z,0.98
2019-02-09T15:05:19.787Z,1.05
2019-02-09T15:07:48.345Z,0.70
2019-02-09T15:10:18.387Z,0.80
2019-02-09T15:12:46.527Z,0.80
2019-02-09T15:15:19.328Z,0.93
2019-02-09T15:17:47.661Z,0.80
2019-02-09T15:20:19.003Z,4.20
2019-02-09T15:22:47.111Z,0.80
2019-02-09T15:25:15.514Z,0.70
2019-02-09T15:27:43.651Z,1.00
2019-02-09T15:30:20.079Z,1.45
2019-02-09T15:32:51.160Z,1.85
2019-02-09T15:35:19.441Z,1.87
2019-02-09T15:37:48.204Z,1.20
2019-02-09T15:40:18.244Z,1.20
2019-02-09T15:42:46.472Z,1.12
2019-02-09T15:45:17.124Z,1.10
2019-02-09T15:47:45.803Z,0.90
2019-02-09T15:50:15.287Z,1.10
2019-02-09T15:52:44.568Z,0.95
2019-02-09T15:55:15.152Z,0.93
2019-02-09T15:57:43.345Z,1.05
2019-02-09T16:00:25.857Z,1.60
2019-02-09T16:02:55.874Z,1.65
2019-02-09T16:05:24.639Z,1.20
2019-02-09T16:07:52.610Z,2.27
2019-02-09T16:10:20.964Z,1.57
2019-02-09T16:12:49.109Z,2.02
2019-02-09T16:15:20.627Z,1.20
2019-02-09T16:17:48.681Z,1.57
2019-02-09T16:20:19.395Z,1.15
2019-02-09T16:22:47.543Z,1.90
2019-02-09T16:25:17.218Z,1.40
2019-02-09T16:27:46.007Z,1.37
2019-02-09T16:30:20.485Z,1.57
2019-02-09T16:32:48.940Z,1.75
2019-02-09T16:35:19.526Z,2.12
2019-02-09T16:37:47.636Z,2.10
2019-02-09T16:40:18.586Z,2.70
2019-02-09T16:42:46.677Z,3.17
2019-02-09T16:45:26.802Z,1.80
2019-02-09T16:47:54.737Z,1.98
2019-02-09T16:50:23.011Z,1.70
2019-02-09T16:52:51.086Z,2.10
2019-02-09T16:55:19.281Z,2.05
2019-02-09T16:57:47.898Z,2.50
2019-02-09T17:00:21.282Z,1.20
2019-02-09T17:02:49.389Z,1.35
2019-02-09T17:05:17.507Z,1.17
2019-02-09T17:07:45.552Z,1.00
2019-02-09T17:10:16.103Z,1.37
2019-02-09T17:12:44.458Z,1.32
2019-02-09T17:15:16.576Z,0.93
2019-02-09T17:17:44.592Z,1.05
2019-02-09T17:20:13.134Z,1.30
2019-02-09T17:22:41.442Z,0.90
2019-02-09T17:25:10.790Z,0.90
2019-02-09T17:27:38.646Z,0.80
2019-02-09T17:30:11.649Z,1.50
2019-02-09T17:32:39.776Z,1.32
2019-02-09T17:35:08.681Z,1.00
2019-02-09T17:37:36.609Z,1.62
2019-02-09T17:40:08.368Z,0.90
2019-02-09T17:42:36.397Z,1.60
2019-02-09T17:45:10.524Z,0.98
2019-02-09T17:47:38.599Z,1.32
2019-02-09T17:50:10.225Z,0.90
2019-02-09T17:52:38.298Z,1.10
2019-02-09T17:55:10.083Z,0.95
2019-02-09T17:57:38.122Z,1.40
2019-02-09T18:00:12.267Z,1.00
2019-02-09T18:02:41.033Z,1.22
2019-02-09T18:05:09.636Z,1.02
2019-02-09T18:07:37.526Z,1.02
2019-02-09T18:10:08.086Z,1.20
2019-02-09T18:12:36.300Z,1.12
2019-02-09T18:15:07.106Z,0.90
2019-02-09T18:17:35.952Z,1.42
2019-02-09T18:20:07.659Z,2.45
2019-02-09T18:22:36.299Z,1.05
2019-02-09T18:25:06.502Z,7.50
2019-02-09T18:27:34.778Z,3.10
2019-02-09T18:30:04.351Z,5.85
2019-02-09T18:32:32.531Z,4.33
2019-02-09T18:35:01.303Z,3.22
2019-02-09T18:37:29.356Z,4.95
2019-02-09T18:39:58.157Z,6.08
2019-02-09T18:42:27.148Z,17.20
2019-02-09T18:44:54.995Z,19.90
2019-02-09T18:47:23.885Z,21.02
2019-02-09T18:49:51.815Z,17.02
2019-02-09T18:52:20.233Z,13.70
2019-02-09T18:54:50.580Z,5.15
2019-02-09T18:57:18.603Z,7.53
2019-02-09T18:59:51.764Z,4.50
2019-02-09T19:02:19.873Z,2.40
2019-02-09T19:04:48.436Z,4.00
2019-02-09T19:07:17.164Z,8.65
2019-02-09T19:09:45.627Z,6.25
2019-02-09T19:12:14.600Z,4.60
2019-02-09T19:14:42.765Z,4.20
2019-02-09T19:17:11.828Z,4.25
2019-02-09T19:19:40.168Z,5.30
2019-02-09T19:22:08.743Z,3.72
2019-02-09T19:24:36.872Z,3.37
2019-02-09T19:27:04.910Z,2.30
2019-02-09T19:29:32.925Z,4.35
2019-02-09T19:32:00.988Z,4.30
2019-02-09T19:34:28.976Z,5.20
2019-02-09T19:36:56.944Z,4.22
2019-02-09T19:39:24.928Z,4.35
2019-02-09T19:41:53.014Z,4.42
2019-02-09T19:44:20.874Z,4.60
2019-02-09T19:46:48.853Z,5.00
2019-02-09T19:49:16.810Z,3.35
2019-02-09T19:51:45.210Z,3.55
2019-02-09T19:54:13.256Z,3.02
2019-02-09T19:56:43.877Z,3.35
2019-02-09T19:59:11.785Z,3.20
2019-02-09T20:01:39.726Z,3.80
2019-02-09T20:04:07.737Z,3.50
2019-02-09T20:06:35.638Z,2.60
2019-02-09T20:09:06.690Z,2.17
2019-02-09T20:11:34.642Z,2.75
2019-02-09T20:14:02.598Z,4.92
2019-02-09T20:16:30.637Z,3.37
2019-02-09T20:18:58.574Z,3.27
2019-02-09T20:21:27.090Z,3.60
2019-02-09T20:23:55.182Z,3.98
2019-02-09T20:26:23.838Z,4.30
2019-02-09T20:28:52.049Z,3.00
2019-02-09T20:31:20.290Z,4.00
2019-02-09T20:33:48.559Z,2.47
2019-02-09T20:36:16.837Z,3.95
2019-02-09T20:38:45.444Z,3.87
2019-02-09T20:41:14.512Z,2.90
2019-02-09T20:43:43.234Z,3.05
2019-02-09T20:46:16.868Z,3.25
2019-02-09T20:48:46.020Z,2.98
2019-02-09T20:51:15.871Z,2.75
2019-02-09T20:53:44.571Z,2.70
2019-02-09T20:56:13.009Z,2.75
2019-02-09T20:58:42.009Z,2.80
2019-02-09T21:01:10.107Z,3.20
2019-02-09T21:03:38.455Z,5.50
2019-02-09T21:06:06.766Z,5.08
2019-02-09T21:08:35.096Z,3.83
2019-02-09T21:11:03.819Z,3.87
2019-02-09T21:13:37.967Z,4.17
2019-02-09T21:16:06.187Z,3.45
2019-02-09T21:18:36.802Z,2.60
2019-02-09T21:21:04.823Z,2.72
2019-02-09T21:23:33.058Z,3.10
2019-02-09T21:26:04.952Z,2.08
2019-02-09T21:28:33.140Z,2.10
2019-02-09T21:31:01.382Z,3.35
2019-02-09T21:33:30.103Z,4.28
2019-02-09T21:35:59.798Z,3.67
2019-02-09T21:38:27.867Z,3.05
2019-02-09T21:40:55.952Z,2.72
2019-02-09T21:43:24.096Z,2.90
2019-02-09T21:45:52.529Z,3.10
2019-02-09T21:48:20.625Z,3.92
2019-02-09T21:50:49.007Z,4.75
2019-02-09T21:53:17.171Z,3.62
2019-02-09T21:55:45.287Z,4.47
2019-02-09T21:58:13.471Z,4.28
2019-02-09T22:00:44.036Z,3.00
2019-02-09T22:03:13.097Z,3.05
2019-02-09T22:05:41.374Z,3.42
2019-02-09T22:08:19.592Z,3.35
2019-02-09T22:10:44.729Z,2.77
2019-02-09T22:13:16.644Z,4.22
2019-02-09T22:15:46.714Z,3.10
2019-02-09T22:18:16.215Z,2.75
2019-02-09T22:20:52.477Z,3.50
2019-02-09T22:23:15.544Z,4.05
2019-02-09T22:25:43.731Z,3.37
2019-02-09T22:28:11.968Z,2.62
2019-02-09T22:30:40.609Z,3.40
2019-02-09T22:33:09.110Z,2.92
2019-02-09T22:35:37.246Z,3.00
2019-02-09T22:38:05.430Z,2.92
2019-02-09T22:40:35.086Z,4.15
2019-02-09T22:43:04.556Z,2.87
2019-02-09T22:45:32.966Z,2.67
2019-02-09T22:48:01.013Z,2.80
2019-02-09T22:50:32.616Z,2.92
2019-02-09T22:53:01.027Z,2.40
2019-02-09T22:55:29.034Z,2.33
2019-02-09T22:57:57.556Z,2.15
2019-02-09T23:00:51.176Z,2.33
2019-02-09T23:03:22.502Z,1.87
2019-02-09T23:06:36.687Z,2.47
2019-02-09T23:09:09.330Z,1.85
2019-02-09T23:11:37.740Z,2.95
2019-02-09T23:14:05.655Z,3.98
2019-02-09T23:16:33.944Z,2.10
2019-02-09T23:19:02.038Z,2.77
2019-02-09T23:21:30.296Z,1.72
2019-02-09T23:23:58.998Z,1.85
2019-02-09T23:26:27.195Z,3.15
2019-02-09T23:28:55.553Z,2.80
2019-02-09T23:31:23.765Z,1.80
2019-02-09T23:33:52.115Z,2.02
2019-02-09T23:36:20.386Z,2.45
2019-02-09T23:38:51.197Z,2.30
2019-02-09T23:41:20.582Z,3.75
2019-02-09T23:43:49.409Z,2.30
2019-02-09T23:46:17.620Z,3.15
2019-02-09T23:48:46.273Z,2.25
2019-02-09T23:51:14.679Z,2.00
2019-02-09T23:53:42.978Z,3.25
2019-02-09T23:56:11.141Z,1.90
2019-02-09T23:58:41.495Z,2.17
